sensor_id;sensor_type;location;lat;lon;timestamp;pressure;altitude;pressure_sealevel;temperature
20848;BMP180;10584;50.854;12.902;2023-09-19T00:02:17;97400.00;;;15.80
20848;BMP180;10584;50.854;12.902;2023-09-19T00:07:39;97397.00;;;15.80
20848;BMP180;10584;50.854;12.902;2023-09-19T00:13:03;97411.00;;;15.90
20848;BMP180;10584;50.854;12.902;2023-09-19T00:18:28;97416.00;;;15.90
20848;BMP180;10584;50.854;12.902;2023-09-19T00:23:50;97409.00;;;15.90
20848;BMP180;10584;50.854;12.902;2023-09-19T00:29:14;97409.00;;;15.90
20848;BMP180;10584;50.854;12.902;2023-09-19T00:34:38;97411.00;;;15.90
20848;BMP180;10584;50.854;12.902;2023-09-19T00:40:00;97412.00;;;16.00
20848;BMP180;10584;50.854;12.902;2023-09-19T00:45:21;97424.00;;;15.90
20848;BMP180;10584;50.854;12.902;2023-09-19T00:50:43;97413.00;;;15.80
20848;BMP180;10584;50.854;12.902;2023-09-19T00:56:05;97408.00;;;15.90
20848;BMP180;10584;50.854;12.902;2023-09-19T01:01:29;97411.00;;;16.00
20848;BMP180;10584;50.854;12.902;2023-09-19T01:06:51;97418.00;;;16.00
20848;BMP180;10584;50.854;12.902;2023-09-19T01:12:18;97412.00;;;16.10
20848;BMP180;10584;50.854;12.902;2023-09-19T01:18:08;97410.00;;;16.20
20848;BMP180;10584;50.854;12.902;2023-09-19T01:29:44;97429.00;;;16.30
20848;BMP180;10584;50.854;12.902;2023-09-19T01:35:05;97439.00;;;16.30
20848;BMP180;10584;50.854;12.902;2023-09-19T01:40:27;97434.00;;;16.40
20848;BMP180;10584;50.854;12.902;2023-09-19T01:52:12;97430.00;;;16.50
20848;BMP180;10584;50.854;12.902;2023-09-19T02:03:28;97445.00;;;16.50
20848;BMP180;10584;50.854;12.902;2023-09-19T02:08:50;97435.00;;;16.50
20848;BMP180;10584;50.854;12.902;2023-09-19T02:14:13;97438.00;;;16.50
20848;BMP180;10584;50.854;12.902;2023-09-19T02:19:35;97448.00;;;16.50
20848;BMP180;10584;50.854;12.902;2023-09-19T02:24:58;97444.00;;;16.50
20848;BMP180;10584;50.854;12.902;2023-09-19T02:30:21;97454.00;;;16.60
20848;BMP180;10584;50.854;12.902;2023-09-19T02:35:47;97460.00;;;16.50
20848;BMP180;10584;50.854;12.902;2023-09-19T02:41:08;97468.00;;;16.50
20848;BMP180;10584;50.854;12.902;2023-09-19T02:46:31;97472.00;;;16.50
20848;BMP180;10584;50.854;12.902;2023-09-19T02:51:53;97487.00;;;16.40
20848;BMP180;10584;50.854;12.902;2023-09-19T02:57:15;97492.00;;;16.40
20848;BMP180;10584;50.854;12.902;2023-09-19T03:02:39;97511.00;;;16.30
20848;BMP180;10584;50.854;12.902;2023-09-19T03:08:03;97510.00;;;16.30
20848;BMP180;10584;50.854;12.902;2023-09-19T03:13:25;97512.00;;;16.30
20848;BMP180;10584;50.854;12.902;2023-09-19T03:18:47;97522.00;;;16.20
20848;BMP180;10584;50.854;12.902;2023-09-19T03:24:11;97513.00;;;16.30
20848;BMP180;10584;50.854;12.902;2023-09-19T03:29:33;97499.00;;;16.30
20848;BMP180;10584;50.854;12.902;2023-09-19T03:34:56;97512.00;;;16.30
20848;BMP180;10584;50.854;12.902;2023-09-19T03:40:18;97517.00;;;16.20
20848;BMP180;10584;50.854;12.902;2023-09-19T03:45:44;97514.00;;;16.20
20848;BMP180;10584;50.854;12.902;2023-09-19T03:51:07;97514.00;;;16.10
20848;BMP180;10584;50.854;12.902;2023-09-19T03:56:29;97498.00;;;16.00
20848;BMP180;10584;50.854;12.902;2023-09-19T04:01:51;97498.00;;;16.00
20848;BMP180;10584;50.854;12.902;2023-09-19T04:07:18;97504.00;;;16.00
20848;BMP180;10584;50.854;12.902;2023-09-19T04:12:41;97522.00;;;15.90
20848;BMP180;10584;50.854;12.902;2023-09-19T04:18:11;97526.00;;;16.00
20848;BMP180;10584;50.854;12.902;2023-09-19T04:23:33;97530.00;;;15.90
20848;BMP180;10584;50.854;12.902;2023-09-19T04:28:55;97539.00;;;15.90
20848;BMP180;10584;50.854;12.902;2023-09-19T04:34:17;97550.00;;;16.00
20848;BMP180;10584;50.854;12.902;2023-09-19T04:39:39;97552.00;;;15.90
20848;BMP180;10584;50.854;12.902;2023-09-19T04:45:00;97570.00;;;15.80
20848;BMP180;10584;50.854;12.902;2023-09-19T04:50:23;97574.00;;;15.90
20848;BMP180;10584;50.854;12.902;2023-09-19T04:55:52;97573.00;;;15.90
20848;BMP180;10584;50.854;12.902;2023-09-19T05:01:17;97569.00;;;15.80
20848;BMP180;10584;50.854;12.902;2023-09-19T05:06:38;97575.00;;;15.90
20848;BMP180;10584;50.854;12.902;2023-09-19T05:12:01;97582.00;;;15.90
20848;BMP180;10584;50.854;12.902;2023-09-19T05:17:22;97597.00;;;15.90
20848;BMP180;10584;50.854;12.902;2023-09-19T05:22:46;97603.00;;;15.90
20848;BMP180;10584;50.854;12.902;2023-09-19T05:28:08;97604.00;;;15.90
20848;BMP180;10584;50.854;12.902;2023-09-19T05:33:30;97600.00;;;15.90
20848;BMP180;10584;50.854;12.902;2023-09-19T05:38:53;97610.00;;;15.90
20848;BMP180;10584;50.854;12.902;2023-09-19T05:44:15;97623.00;;;15.90
20848;BMP180;10584;50.854;12.902;2023-09-19T05:49:36;97617.00;;;16.00
20848;BMP180;10584;50.854;12.902;2023-09-19T05:55:02;97626.00;;;16.10
20848;BMP180;10584;50.854;12.902;2023-09-19T06:00:26;97629.00;;;16.20
20848;BMP180;10584;50.854;12.902;2023-09-19T06:05:52;97627.00;;;16.30
20848;BMP180;10584;50.854;12.902;2023-09-19T06:11:18;97634.00;;;16.20
20848;BMP180;10584;50.854;12.902;2023-09-19T06:16:41;97646.00;;;16.30
20848;BMP180;10584;50.854;12.902;2023-09-19T06:22:03;97646.00;;;16.40
20848;BMP180;10584;50.854;12.902;2023-09-19T06:27:25;97652.00;;;16.40
20848;BMP180;10584;50.854;12.902;2023-09-19T06:32:46;97651.00;;;16.50
20848;BMP180;10584;50.854;12.902;2023-09-19T06:38:09;97663.00;;;16.40
20848;BMP180;10584;50.854;12.902;2023-09-19T06:43:31;97666.00;;;16.50
20848;BMP180;10584;50.854;12.902;2023-09-19T06:48:52;97665.00;;;16.50
20848;BMP180;10584;50.854;12.902;2023-09-19T06:54:14;97664.00;;;16.60
20848;BMP180;10584;50.854;12.902;2023-09-19T06:59:36;97685.00;;;16.70
20848;BMP180;10584;50.854;12.902;2023-09-19T07:04:58;97691.00;;;16.80
20848;BMP180;10584;50.854;12.902;2023-09-19T07:10:19;97698.00;;;16.90
20848;BMP180;10584;50.854;12.902;2023-09-19T07:15:42;97689.00;;;17.00
20848;BMP180;10584;50.854;12.902;2023-09-19T07:21:08;97693.00;;;17.40
20848;BMP180;10584;50.854;12.902;2023-09-19T07:26:30;97698.00;;;17.60
20848;BMP180;10584;50.854;12.902;2023-09-19T07:31:52;97712.00;;;18.00
20848;BMP180;10584;50.854;12.902;2023-09-19T07:37:14;97713.00;;;18.20
20848;BMP180;10584;50.854;12.902;2023-09-19T07:42:37;97715.00;;;18.30
20848;BMP180;10584;50.854;12.902;2023-09-19T07:48:05;97707.00;;;18.40
20848;BMP180;10584;50.854;12.902;2023-09-19T07:53:27;97722.00;;;18.80
20848;BMP180;10584;50.854;12.902;2023-09-19T07:58:49;97712.00;;;19.00
20848;BMP180;10584;50.854;12.902;2023-09-19T08:04:10;97729.00;;;19.30
20848;BMP180;10584;50.854;12.902;2023-09-19T08:09:32;97740.00;;;18.90
20848;BMP180;10584;50.854;12.902;2023-09-19T08:14:54;97737.00;;;18.70
20848;BMP180;10584;50.854;12.902;2023-09-19T08:20:16;97746.00;;;18.70
20848;BMP180;10584;50.854;12.902;2023-09-19T08:25:38;97754.00;;;19.00
20848;BMP180;10584;50.854;12.902;2023-09-19T08:31:05;97758.00;;;18.70
20848;BMP180;10584;50.854;12.902;2023-09-19T08:36:27;97762.00;;;18.80
20848;BMP180;10584;50.854;12.902;2023-09-19T08:41:49;97773.00;;;19.00
20848;BMP180;10584;50.854;12.902;2023-09-19T08:47:13;97784.00;;;19.10
20848;BMP180;10584;50.854;12.902;2023-09-19T08:52:42;97773.00;;;19.20
20848;BMP180;10584;50.854;12.902;2023-09-19T08:58:09;97779.00;;;19.00
20848;BMP180;10584;50.854;12.902;2023-09-19T09:03:33;97781.00;;;19.30
20848;BMP180;10584;50.854;12.902;2023-09-19T09:08:57;97780.00;;;19.20
20848;BMP180;10584;50.854;12.902;2023-09-19T09:14:20;97782.00;;;19.40
20848;BMP180;10584;50.854;12.902;2023-09-19T09:19:42;97796.00;;;19.30
20848;BMP180;10584;50.854;12.902;2023-09-19T09:25:04;97799.00;;;19.50
20848;BMP180;10584;50.854;12.902;2023-09-19T09:30:36;97805.00;;;19.50
20848;BMP180;10584;50.854;12.902;2023-09-19T09:36:00;97804.00;;;19.30
20848;BMP180;10584;50.854;12.902;2023-09-19T09:41:36;97808.00;;;19.70
20848;BMP180;10584;50.854;12.902;2023-09-19T09:46:59;97808.00;;;20.10
20848;BMP180;10584;50.854;12.902;2023-09-19T09:52:47;97799.00;;;20.50
20848;BMP180;10584;50.854;12.902;2023-09-19T09:58:18;97807.00;;;20.40
20848;BMP180;10584;50.854;12.902;2023-09-19T10:03:40;97808.00;;;20.40
20848;BMP180;10584;50.854;12.902;2023-09-19T10:09:07;97809.00;;;20.40
20848;BMP180;10584;50.854;12.902;2023-09-19T10:14:35;97809.00;;;20.60
20848;BMP180;10584;50.854;12.902;2023-09-19T10:20:00;97811.00;;;20.60
20848;BMP180;10584;50.854;12.902;2023-09-19T10:25:43;97827.00;;;20.80
20848;BMP180;10584;50.854;12.902;2023-09-19T10:31:07;97808.00;;;20.60
20848;BMP180;10584;50.854;12.902;2023-09-19T10:36:33;97824.00;;;20.50
20848;BMP180;10584;50.854;12.902;2023-09-19T10:41:57;97820.00;;;20.40
20848;BMP180;10584;50.854;12.902;2023-09-19T10:47:24;97816.00;;;20.30
20848;BMP180;10584;50.854;12.902;2023-09-19T10:52:45;97820.00;;;20.60
20848;BMP180;10584;50.854;12.902;2023-09-19T10:58:09;97817.00;;;20.50
20848;BMP180;10584;50.854;12.902;2023-09-19T11:03:36;97810.00;;;20.60
20848;BMP180;10584;50.854;12.902;2023-09-19T11:09:05;97818.00;;;20.50
20848;BMP180;10584;50.854;12.902;2023-09-19T11:14:39;97807.00;;;20.80
20848;BMP180;10584;50.854;12.902;2023-09-19T11:25:41;97819.00;;;21.10
20848;BMP180;10584;50.854;12.902;2023-09-19T11:31:41;97832.00;;;21.20
20848;BMP180;10584;50.854;12.902;2023-09-19T11:42:47;97822.00;;;20.90
20848;BMP180;10584;50.854;12.902;2023-09-19T11:48:24;97826.00;;;20.60
20848;BMP180;10584;50.854;12.902;2023-09-19T11:53:49;97818.00;;;20.40
20848;BMP180;10584;50.854;12.902;2023-09-19T11:59:13;97820.00;;;20.50
20848;BMP180;10584;50.854;12.902;2023-09-19T12:04:44;97814.00;;;20.70
20848;BMP180;10584;50.854;12.902;2023-09-19T12:10:09;97816.00;;;20.90
20848;BMP180;10584;50.854;12.902;2023-09-19T12:15:32;97818.00;;;21.30
20848;BMP180;10584;50.854;12.902;2023-09-19T12:21:00;97810.00;;;21.10
20848;BMP180;10584;50.854;12.902;2023-09-19T12:26:24;97812.00;;;21.00
20848;BMP180;10584;50.854;12.902;2023-09-19T12:31:53;97797.00;;;21.20
20848;BMP180;10584;50.854;12.902;2023-09-19T12:37:17;97802.00;;;21.60
20848;BMP180;10584;50.854;12.902;2023-09-19T12:42:49;97802.00;;;21.50
20848;BMP180;10584;50.854;12.902;2023-09-19T12:48:25;97797.00;;;21.60
20848;BMP180;10584;50.854;12.902;2023-09-19T12:53:58;97796.00;;;21.80
20848;BMP180;10584;50.854;12.902;2023-09-19T12:59:29;97797.00;;;22.00
20848;BMP180;10584;50.854;12.902;2023-09-19T13:04:54;97807.00;;;22.10
20848;BMP180;10584;50.854;12.902;2023-09-19T13:10:21;97799.00;;;22.00
20848;BMP180;10584;50.854;12.902;2023-09-19T13:15:55;97807.00;;;22.20
20848;BMP180;10584;50.854;12.902;2023-09-19T13:21:29;97818.00;;;22.20
20848;BMP180;10584;50.854;12.902;2023-09-19T13:26:54;97799.00;;;22.30
20848;BMP180;10584;50.854;12.902;2023-09-19T13:32:16;97803.00;;;22.20
20848;BMP180;10584;50.854;12.902;2023-09-19T13:37:39;97799.00;;;21.80
20848;BMP180;10584;50.854;12.902;2023-09-19T13:43:04;97793.00;;;22.00
20848;BMP180;10584;50.854;12.902;2023-09-19T13:48:28;97804.00;;;22.20
20848;BMP180;10584;50.854;12.902;2023-09-19T13:53:51;97803.00;;;22.30
20848;BMP180;10584;50.854;12.902;2023-09-19T13:59:12;97801.00;;;22.10
20848;BMP180;10584;50.854;12.902;2023-09-19T14:04:34;97794.00;;;22.40
20848;BMP180;10584;50.854;12.902;2023-09-19T14:09:58;97813.00;;;22.50
20848;BMP180;10584;50.854;12.902;2023-09-19T14:15:20;97792.00;;;22.40
20848;BMP180;10584;50.854;12.902;2023-09-19T14:20:43;97801.00;;;22.00
20848;BMP180;10584;50.854;12.902;2023-09-19T14:26:05;97793.00;;;22.10
20848;BMP180;10584;50.854;12.902;2023-09-19T14:31:27;97801.00;;;22.20
20848;BMP180;10584;50.854;12.902;2023-09-19T14:36:49;97793.00;;;22.40
20848;BMP180;10584;50.854;12.902;2023-09-19T14:42:11;97800.00;;;22.40
20848;BMP180;10584;50.854;12.902;2023-09-19T14:47:33;97794.00;;;22.30
20848;BMP180;10584;50.854;12.902;2023-09-19T14:52:55;97801.00;;;21.90
20848;BMP180;10584;50.854;12.902;2023-09-19T14:58:17;97806.00;;;22.00
20848;BMP180;10584;50.854;12.902;2023-09-19T15:03:40;97799.00;;;22.00
20848;BMP180;10584;50.854;12.902;2023-09-19T15:09:02;97787.00;;;21.80
20848;BMP180;10584;50.854;12.902;2023-09-19T15:14:26;97792.00;;;21.70
20848;BMP180;10584;50.854;12.902;2023-09-19T15:19:50;97793.00;;;21.80
20848;BMP180;10584;50.854;12.902;2023-09-19T15:25:12;97791.00;;;21.70
20848;BMP180;10584;50.854;12.902;2023-09-19T15:30:37;97791.00;;;21.40
20848;BMP180;10584;50.854;12.902;2023-09-19T15:36:07;97789.00;;;21.60
20848;BMP180;10584;50.854;12.902;2023-09-19T15:41:31;97795.00;;;21.50
20848;BMP180;10584;50.854;12.902;2023-09-19T15:46:53;97794.00;;;21.50
20848;BMP180;10584;50.854;12.902;2023-09-19T15:52:17;97800.00;;;21.30
20848;BMP180;10584;50.854;12.902;2023-09-19T15:57:39;97799.00;;;21.20
20848;BMP180;10584;50.854;12.902;2023-09-19T16:03:02;97787.00;;;21.00
20848;BMP180;10584;50.854;12.902;2023-09-19T16:08:24;97796.00;;;21.00
20848;BMP180;10584;50.854;12.902;2023-09-19T16:13:47;97805.00;;;21.00
20848;BMP180;10584;50.854;12.902;2023-09-19T16:19:09;97803.00;;;20.70
20848;BMP180;10584;50.854;12.902;2023-09-19T16:24:33;97806.00;;;20.30
20848;BMP180;10584;50.854;12.902;2023-09-19T16:29:55;97810.00;;;20.20
20848;BMP180;10584;50.854;12.902;2023-09-19T16:35:16;97818.00;;;19.80
20848;BMP180;10584;50.854;12.902;2023-09-19T16:40:38;97811.00;;;19.50
20848;BMP180;10584;50.854;12.902;2023-09-19T16:46:04;97810.00;;;19.40
20848;BMP180;10584;50.854;12.902;2023-09-19T16:51:27;97819.00;;;19.20
20848;BMP180;10584;50.854;12.902;2023-09-19T16:56:50;97820.00;;;18.90
20848;BMP180;10584;50.854;12.902;2023-09-19T17:02:11;97824.00;;;18.80
20848;BMP180;10584;50.854;12.902;2023-09-19T17:07:33;97820.00;;;18.70
20848;BMP180;10584;50.854;12.902;2023-09-19T17:12:54;97822.00;;;18.50
20848;BMP180;10584;50.854;12.902;2023-09-19T17:18:16;97821.00;;;18.40
20848;BMP180;10584;50.854;12.902;2023-09-19T17:23:39;97818.00;;;18.40
20848;BMP180;10584;50.854;12.902;2023-09-19T17:29:01;97821.00;;;18.10
20848;BMP180;10584;50.854;12.902;2023-09-19T17:34:22;97818.00;;;18.00
20848;BMP180;10584;50.854;12.902;2023-09-19T17:39:44;97823.00;;;17.70
20848;BMP180;10584;50.854;12.902;2023-09-19T17:45:06;97833.00;;;17.60
20848;BMP180;10584;50.854;12.902;2023-09-19T17:50:28;97839.00;;;17.30
20848;BMP180;10584;50.854;12.902;2023-09-19T17:55:49;97844.00;;;17.00
20848;BMP180;10584;50.854;12.902;2023-09-19T18:01:19;97852.00;;;16.70
20848;BMP180;10584;50.854;12.902;2023-09-19T18:06:51;97860.00;;;16.60
20848;BMP180;10584;50.854;12.902;2023-09-19T18:12:12;97858.00;;;16.30
20848;BMP180;10584;50.854;12.902;2023-09-19T18:17:34;97871.00;;;16.10
20848;BMP180;10584;50.854;12.902;2023-09-19T18:22:57;97870.00;;;15.90
20848;BMP180;10584;50.854;12.902;2023-09-19T18:28:20;97874.00;;;15.70
20848;BMP180;10584;50.854;12.902;2023-09-19T18:33:42;97882.00;;;15.60
20848;BMP180;10584;50.854;12.902;2023-09-19T18:39:04;97882.00;;;15.40
20848;BMP180;10584;50.854;12.902;2023-09-19T18:44:26;97885.00;;;15.30
20848;BMP180;10584;50.854;12.902;2023-09-19T18:49:48;97884.00;;;15.10
20848;BMP180;10584;50.854;12.902;2023-09-19T18:55:10;97890.00;;;14.90
20848;BMP180;10584;50.854;12.902;2023-09-19T19:00:32;97906.00;;;14.80
20848;BMP180;10584;50.854;12.902;2023-09-19T19:05:54;97902.00;;;14.70
20848;BMP180;10584;50.854;12.902;2023-09-19T19:11:16;97902.00;;;14.50
20848;BMP180;10584;50.854;12.902;2023-09-19T19:16:40;97907.00;;;14.40
20848;BMP180;10584;50.854;12.902;2023-09-19T19:22:04;97909.00;;;14.30
20848;BMP180;10584;50.854;12.902;2023-09-19T19:27:27;97910.00;;;14.30
20848;BMP180;10584;50.854;12.902;2023-09-19T19:32:51;97916.00;;;14.20
20848;BMP180;10584;50.854;12.902;2023-09-19T19:38:12;97906.00;;;14.20
20848;BMP180;10584;50.854;12.902;2023-09-19T19:43:34;97908.00;;;14.20
20848;BMP180;10584;50.854;12.902;2023-09-19T19:48:56;97922.00;;;14.20
20848;BMP180;10584;50.854;12.902;2023-09-19T19:54:19;97931.00;;;14.30
20848;BMP180;10584;50.854;12.902;2023-09-19T19:59:41;97930.00;;;14.40
20848;BMP180;10584;50.854;12.902;2023-09-19T20:05:03;97939.00;;;14.40
20848;BMP180;10584;50.854;12.902;2023-09-19T20:10:28;97934.00;;;14.40
20848;BMP180;10584;50.854;12.902;2023-09-19T20:15:57;97923.00;;;14.40
20848;BMP180;10584;50.854;12.902;2023-09-19T20:21:19;97919.00;;;14.30
20848;BMP180;10584;50.854;12.902;2023-09-19T20:26:43;97917.00;;;14.30
20848;BMP180;10584;50.854;12.902;2023-09-19T20:32:05;97913.00;;;14.30
20848;BMP180;10584;50.854;12.902;2023-09-19T20:37:29;97907.00;;;14.40
20848;BMP180;10584;50.854;12.902;2023-09-19T20:42:50;97905.00;;;14.40
20848;BMP180;10584;50.854;12.902;2023-09-19T20:48:13;97903.00;;;14.50
20848;BMP180;10584;50.854;12.902;2023-09-19T20:53:37;97902.00;;;14.60
20848;BMP180;10584;50.854;12.902;2023-09-19T20:58:59;97907.00;;;14.60
20848;BMP180;10584;50.854;12.902;2023-09-19T21:04:22;97907.00;;;14.60
20848;BMP180;10584;50.854;12.902;2023-09-19T21:09:44;97905.00;;;14.50
20848;BMP180;10584;50.854;12.902;2023-09-19T21:15:05;97913.00;;;14.60
20848;BMP180;10584;50.854;12.902;2023-09-19T21:20:28;97906.00;;;14.60
20848;BMP180;10584;50.854;12.902;2023-09-19T21:25:56;97910.00;;;14.50
20848;BMP180;10584;50.854;12.902;2023-09-19T21:31:18;97919.00;;;14.40
20848;BMP180;10584;50.854;12.902;2023-09-19T21:36:40;97918.00;;;14.40
20848;BMP180;10584;50.854;12.902;2023-09-19T21:42:02;97921.00;;;14.30
20848;BMP180;10584;50.854;12.902;2023-09-19T21:47:26;97914.00;;;14.10
20848;BMP180;10584;50.854;12.902;2023-09-19T21:52:48;97907.00;;;14.10
20848;BMP180;10584;50.854;12.902;2023-09-19T21:58:10;97905.00;;;13.90
20848;BMP180;10584;50.854;12.902;2023-09-19T22:03:34;97901.00;;;13.80
20848;BMP180;10584;50.854;12.902;2023-09-19T22:09:00;97892.00;;;13.80
20848;BMP180;10584;50.854;12.902;2023-09-19T22:14:22;97886.00;;;13.60
20848;BMP180;10584;50.854;12.902;2023-09-19T22:19:50;97890.00;;;13.50
20848;BMP180;10584;50.854;12.902;2023-09-19T22:25:15;97885.00;;;13.50
20848;BMP180;10584;50.854;12.902;2023-09-19T22:30:42;97886.00;;;13.50
20848;BMP180;10584;50.854;12.902;2023-09-19T22:36:08;97891.00;;;13.40
20848;BMP180;10584;50.854;12.902;2023-09-19T22:41:31;97886.00;;;13.40
20848;BMP180;10584;50.854;12.902;2023-09-19T22:46:54;97889.00;;;13.20
20848;BMP180;10584;50.854;12.902;2023-09-19T22:52:17;97878.00;;;13.20
20848;BMP180;10584;50.854;12.902;2023-09-19T22:57:39;97881.00;;;13.10
20848;BMP180;10584;50.854;12.902;2023-09-19T23:03:01;97875.00;;;13.00
20848;BMP180;10584;50.854;12.902;2023-09-19T23:08:27;97874.00;;;13.10
20848;BMP180;10584;50.854;12.902;2023-09-19T23:13:53;97877.00;;;13.10
20848;BMP180;10584;50.854;12.902;2023-09-19T23:19:15;97879.00;;;13.00
20848;BMP180;10584;50.854;12.902;2023-09-19T23:24:44;97884.00;;;13.00
20848;BMP180;10584;50.854;12.902;2023-09-19T23:30:11;97881.00;;;13.00
20848;BMP180;10584;50.854;12.902;2023-09-19T23:35:33;97886.00;;;13.00
20848;BMP180;10584;50.854;12.902;2023-09-19T23:40:55;97891.00;;;13.10
20848;BMP180;10584;50.854;12.902;2023-09-19T23:46:17;97896.00;;;13.10
20848;BMP180;10584;50.854;12.902;2023-09-19T23:51:39;97893.00;;;13.20
20848;BMP180;10584;50.854;12.902;2023-09-19T23:57:00;97902.00;;;13.30
